createdAt,value
2022-12-14T00:01:28.528Z,100750.88
2022-12-14T00:03:56.369Z,100736.56
2022-12-14T00:06:26.107Z,100746.34
2022-12-14T00:08:55.682Z,100738.25
2022-12-14T00:11:23.324Z,100739.34
2022-12-14T00:14:01.410Z,100735.84
2022-12-14T00:16:31.262Z,100740.13
2022-12-14T00:18:59.304Z,100736.69
2022-12-14T00:21:27.081Z,100737.63
2022-12-14T00:23:54.691Z,100734.81
2022-12-14T00:26:24.277Z,100709.88
2022-12-14T00:28:53.337Z,100736.00
2022-12-14T00:31:21.125Z,100724.44
2022-12-14T00:33:48.168Z,100721.09
2022-12-14T00:36:15.168Z,100724.78
2022-12-14T00:38:42.539Z,100723.16
2022-12-14T00:41:09.993Z,100725.97
2022-12-14T00:43:36.510Z,100717.19
2022-12-14T00:46:03.267Z,100715.50
2022-12-14T00:48:30.810Z,100717.16
2022-12-14T00:50:58.305Z,100715.34
2022-12-14T00:53:25.563Z,100704.19
2022-12-14T00:55:52.608Z,100714.38
2022-12-14T00:58:21.306Z,100711.16
2022-12-14T01:00:48.713Z,100637.09
2022-12-14T01:03:15.663Z,100715.88
2022-12-14T01:05:42.405Z,100712.25
2022-12-14T01:08:15.818Z,100698.28
2022-12-14T01:10:42.292Z,100675.16
2022-12-14T01:13:10.618Z,100709.84
2022-12-14T01:15:37.302Z,100718.50
2022-12-14T01:18:03.985Z,100640.75
2022-12-14T01:20:30.844Z,100666.84
2022-12-14T01:22:57.586Z,100717.53
2022-12-14T01:25:24.499Z,100715.03
2022-12-14T01:27:51.040Z,100670.06
2022-12-14T01:30:19.435Z,100708.94
2022-12-14T01:32:46.910Z,100698.38
2022-12-14T01:35:13.725Z,100682.72
2022-12-14T01:37:40.218Z,100603.34
2022-12-14T01:40:07.399Z,100694.88
2022-12-14T01:42:36.192Z,100682.69
2022-12-14T01:45:03.237Z,100616.38
2022-12-14T01:47:37.985Z,100612.84
2022-12-14T01:53:11.920Z,100638.13
2022-12-14T01:55:49.902Z,100675.13
2022-12-14T01:58:20.152Z,100677.19
2022-12-14T02:00:47.269Z,100616.78
2022-12-14T02:03:18.351Z,100670.22
2022-12-14T02:05:51.415Z,100674.56
2022-12-14T02:08:20.692Z,100657.41
2022-12-14T02:10:50.149Z,100673.78
2022-12-14T02:13:23.015Z,100678.22
2022-12-14T02:15:50.612Z,100677.41
2022-12-14T02:18:43.418Z,100675.81
2022-12-14T02:21:21.934Z,100670.41
2022-12-14T02:24:13.428Z,100675.75
2022-12-14T02:27:24.843Z,100671.44
2022-12-14T02:29:57.253Z,100675.78
2022-12-14T02:32:50.728Z,100673.13
2022-12-14T02:35:41.409Z,100657.91
2022-12-14T02:38:35.553Z,100661.63
2022-12-14T02:41:26.840Z,100666.06
2022-12-14T02:44:16.003Z,100665.31
2022-12-14T02:47:04.990Z,100659.25
2022-12-14T02:49:49.373Z,100654.84
2022-12-14T02:52:32.960Z,100467.22
2022-12-14T02:55:08.767Z,100551.09
2022-12-14T02:57:49.958Z,100639.31
2022-12-14T03:00:16.770Z,100631.72
2022-12-14T03:02:44.587Z,100609.41
2022-12-14T03:05:11.222Z,100565.09
2022-12-14T03:07:48.816Z,100621.97
2022-12-14T03:10:37.380Z,100627.34
2022-12-14T03:13:31.876Z,100628.19
2022-12-14T03:16:03.137Z,100596.09
2022-12-14T03:18:36.350Z,100491.56
2022-12-14T03:21:07.866Z,100622.16
2022-12-14T03:23:39.028Z,100488.06
2022-12-14T03:26:17.379Z,100616.03
2022-12-14T03:28:53.223Z,100614.41
2022-12-14T03:31:25.419Z,100610.00
2022-12-14T03:33:55.636Z,100611.75
2022-12-14T03:36:30.235Z,100603.09
2022-12-14T03:39:00.376Z,100591.00
2022-12-14T03:41:35.048Z,100599.47
2022-12-14T03:44:10.775Z,100599.59
2022-12-14T03:47:32.756Z,100590.81
2022-12-14T03:50:04.874Z,100583.97
2022-12-14T03:53:06.005Z,100588.31
2022-12-14T03:56:02.523Z,100589.34
2022-12-14T03:59:00.080Z,100528.00
2022-12-14T04:01:38.966Z,100583.19
2022-12-14T04:04:26.026Z,100505.41
2022-12-14T04:07:14.461Z,100492.25
2022-12-14T04:10:03.015Z,100579.50
2022-12-14T04:12:55.251Z,100577.81
2022-12-14T04:15:48.473Z,100569.78
2022-12-14T04:18:41.393Z,100519.13
2022-12-14T04:21:14.079Z,100490.59
2022-12-14T04:24:05.430Z,100569.06
2022-12-14T04:26:37.558Z,100489.50
2022-12-14T04:29:28.442Z,100514.69
2022-12-14T04:32:15.215Z,100558.84
2022-12-14T04:34:45.777Z,100565.72
2022-12-14T04:37:17.365Z,100567.75
2022-12-14T04:39:59.021Z,100551.63
2022-12-14T04:42:34.079Z,100516.94
2022-12-14T04:45:07.399Z,100542.63
2022-12-14T04:47:40.458Z,100514.97
2022-12-14T04:50:13.640Z,100545.47
2022-12-14T04:52:45.754Z,100552.78
2022-12-14T04:55:36.929Z,100548.59
2022-12-14T04:58:16.350Z,100524.38
2022-12-14T05:00:59.917Z,100521.88
2022-12-14T05:03:32.241Z,100546.06
2022-12-14T05:06:15.213Z,100542.72
2022-12-14T05:09:26.483Z,100515.88
2022-12-14T05:12:04.958Z,100452.22
2022-12-14T05:14:42.515Z,100538.25
2022-12-14T05:17:09.784Z,100535.75
2022-12-14T05:19:37.535Z,100462.44
2022-12-14T05:22:07.046Z,100535.31
2022-12-14T05:24:33.688Z,100533.00
2022-12-14T05:27:00.262Z,100531.97
2022-12-14T05:29:26.828Z,100512.78
2022-12-14T05:31:53.472Z,100527.28
2022-12-14T05:34:20.318Z,100489.19
2022-12-14T05:36:46.822Z,100418.41
2022-12-14T05:39:14.503Z,100481.34
2022-12-14T05:41:41.263Z,100519.22
2022-12-14T05:44:07.867Z,100502.81
2022-12-14T05:46:34.644Z,100519.13
2022-12-14T05:49:01.191Z,100520.09
2022-12-14T05:51:28.205Z,100524.44
2022-12-14T05:53:54.908Z,100523.66
2022-12-14T05:56:21.480Z,100518.38
2022-12-14T05:58:51.692Z,100522.78
2022-12-14T06:01:19.583Z,100511.38
2022-12-14T06:03:46.889Z,100520.78
2022-12-14T06:06:14.680Z,100490.59
2022-12-14T06:08:44.384Z,100513.19
2022-12-14T06:11:14.073Z,100484.03
2022-12-14T06:13:41.293Z,100502.03
2022-12-14T06:16:16.664Z,100518.88
2022-12-14T06:18:47.844Z,100479.69
2022-12-14T06:21:15.727Z,100497.72
2022-12-14T06:23:42.862Z,100434.38
2022-12-14T06:26:10.550Z,100483.56
2022-12-14T06:28:37.470Z,100489.75
2022-12-14T06:31:04.985Z,100412.06
2022-12-14T06:33:34.135Z,100487.38
2022-12-14T06:36:01.379Z,100459.03
2022-12-14T06:38:27.964Z,100415.94
2022-12-14T06:40:54.758Z,100484.78
2022-12-14T06:43:24.366Z,100487.59
2022-12-14T06:45:50.968Z,100492.69
2022-12-14T06:48:17.527Z,100492.53
2022-12-14T06:50:45.368Z,100491.44
2022-12-14T06:53:13.544Z,100471.88
2022-12-14T06:55:40.103Z,100493.59
2022-12-14T06:58:06.719Z,100373.53
2022-12-14T07:00:33.467Z,100382.97
2022-12-14T07:03:00.104Z,100341.34
2022-12-14T07:05:26.660Z,100361.84
2022-12-14T07:07:53.276Z,100403.97
2022-12-14T07:10:19.785Z,100412.66
2022-12-14T07:12:46.290Z,100447.03
2022-12-14T07:15:12.816Z,100334.84
2022-12-14T07:17:39.318Z,100467.75
2022-12-14T07:20:07.369Z,100449.72
2022-12-14T07:22:35.169Z,100469.66
2022-12-14T07:25:02.175Z,100395.94
2022-12-14T07:27:29.140Z,100473.50
2022-12-14T07:29:56.198Z,100467.75
2022-12-14T07:32:23.106Z,100463.50
2022-12-14T07:34:49.651Z,100465.97
2022-12-14T07:37:16.303Z,100464.34
2022-12-14T07:39:42.972Z,100450.63
2022-12-14T07:42:09.609Z,100466.44
2022-12-14T07:44:36.163Z,100475.28
2022-12-14T07:47:02.665Z,100477.25
2022-12-14T07:49:29.442Z,100483.50
2022-12-14T07:51:55.963Z,100431.47
2022-12-14T07:54:22.534Z,100409.72
2022-12-14T07:56:49.694Z,100464.78
2022-12-14T07:59:16.433Z,100406.28
2022-12-14T08:01:43.805Z,100450.09
2022-12-14T08:04:13.464Z,100368.78
2022-12-14T08:06:41.586Z,100450.88
2022-12-14T08:09:10.617Z,100389.28
2022-12-14T08:11:37.586Z,100341.69
2022-12-14T08:14:07.199Z,100465.09
2022-12-14T08:16:34.165Z,100448.56
2022-12-14T08:19:01.553Z,100454.25
2022-12-14T08:21:29.346Z,100414.50
2022-12-14T08:23:57.077Z,100464.56
2022-12-14T08:26:31.542Z,100463.28
2022-12-14T08:29:00.250Z,100450.44
2022-12-14T08:31:28.153Z,100258.66
2022-12-14T08:33:55.370Z,100399.19
2022-12-14T08:36:28.455Z,100440.41
2022-12-14T08:39:03.912Z,100430.63
2022-12-14T08:41:30.865Z,100437.56
2022-12-14T08:43:59.632Z,100447.66
2022-12-14T08:46:27.835Z,100396.22
2022-12-14T08:48:55.941Z,100418.41
2022-12-14T08:51:24.194Z,100433.66
2022-12-14T08:53:52.000Z,100400.53
2022-12-14T08:56:21.016Z,100420.69
2022-12-14T08:58:47.728Z,100424.00
2022-12-14T09:01:17.401Z,100359.28
2022-12-14T09:03:45.719Z,100412.94
2022-12-14T09:06:18.413Z,100406.13
2022-12-14T09:08:45.004Z,100407.47
2022-12-14T09:11:13.366Z,100388.66
2022-12-14T09:13:40.312Z,100407.81
2022-12-14T09:16:07.366Z,100409.06
2022-12-14T09:18:37.082Z,100311.16
2022-12-14T09:21:03.957Z,100393.09
2022-12-14T09:23:32.547Z,100413.97
2022-12-14T09:26:00.449Z,100413.19
2022-12-14T09:28:27.877Z,100417.94
2022-12-14T09:31:00.255Z,100329.63
2022-12-14T09:33:28.987Z,100407.91
2022-12-14T09:36:17.953Z,100404.69
2022-12-14T09:38:51.082Z,100399.44
2022-12-14T09:41:28.665Z,100399.75
2022-12-14T09:44:25.036Z,100390.41
2022-12-14T09:47:17.088Z,100398.81
2022-12-14T09:49:51.350Z,100382.16
2022-12-14T09:52:29.797Z,100390.41
2022-12-14T09:54:58.813Z,100380.94
2022-12-14T09:57:29.606Z,100389.59
2022-12-14T09:59:56.687Z,100387.84
2022-12-14T10:03:07.233Z,100387.38
2022-12-14T10:05:58.743Z,100381.16
2022-12-14T10:08:33.435Z,100290.09
2022-12-14T10:11:30.901Z,100371.22
2022-12-14T10:14:20.963Z,100366.03
2022-12-14T10:17:13.542Z,100246.13
2022-12-14T10:20:22.019Z,100354.75
2022-12-14T10:22:55.130Z,100349.19
2022-12-14T10:25:34.134Z,100347.78
2022-12-14T10:28:11.989Z,100344.34
2022-12-14T10:30:42.027Z,100319.84
2022-12-14T10:33:16.677Z,100329.84
2022-12-14T10:35:55.175Z,100329.34
2022-12-14T10:38:41.478Z,100333.56
2022-12-14T10:41:29.728Z,100330.47
2022-12-14T10:44:08.855Z,100329.59
2022-12-14T10:47:01.834Z,100324.63
2022-12-14T10:49:50.653Z,100260.00
2022-12-14T10:52:21.854Z,100307.28
2022-12-14T10:55:06.231Z,100271.13
2022-12-14T10:57:32.750Z,100313.66
2022-12-14T11:00:09.444Z,100261.38
2022-12-14T11:02:44.034Z,100232.25
2022-12-14T11:05:37.168Z,100295.16
2022-12-14T11:08:08.160Z,100303.31
2022-12-14T11:10:37.008Z,100311.25
2022-12-14T11:13:21.624Z,100317.09
2022-12-14T11:15:51.122Z,100301.84
2022-12-14T11:18:17.731Z,100301.03
2022-12-14T11:20:56.651Z,100289.59
2022-12-14T11:23:28.940Z,100264.06
2022-12-14T11:26:00.982Z,100246.94
2022-12-14T11:28:35.974Z,100282.91
2022-12-14T11:31:12.832Z,100232.00
2022-12-14T11:33:44.620Z,100288.84
2022-12-14T11:36:35.117Z,100224.22
2022-12-14T11:39:06.809Z,100289.13
2022-12-14T11:41:38.918Z,100284.28
2022-12-14T11:44:22.397Z,100278.44
2022-12-14T11:47:01.412Z,100281.72
2022-12-14T11:49:35.034Z,100243.47
2022-12-14T11:52:10.730Z,100225.66
2022-12-14T11:54:40.141Z,100276.50
2022-12-14T11:57:07.264Z,100283.94
2022-12-14T11:59:50.105Z,100227.00
2022-12-14T12:02:31.036Z,100287.06
2022-12-14T12:05:11.588Z,100286.78
2022-12-14T12:07:44.992Z,100293.09
2022-12-14T12:10:17.246Z,100284.72
2022-12-14T12:12:52.425Z,100241.50
2022-12-14T12:15:29.537Z,100281.56
2022-12-14T12:18:19.862Z,100278.34
2022-12-14T12:21:03.274Z,100287.28
2022-12-14T12:23:38.009Z,100282.66
2022-12-14T12:26:22.616Z,100291.84
2022-12-14T12:29:00.279Z,100276.47
2022-12-14T12:31:34.781Z,100272.00
2022-12-14T12:34:10.141Z,100271.22
2022-12-14T12:36:37.192Z,100276.47
2022-12-14T12:39:15.649Z,100229.03
2022-12-14T12:42:05.222Z,100268.84
2022-12-14T12:44:50.680Z,100270.03
2022-12-14T12:47:33.391Z,100265.16
2022-12-14T12:50:14.254Z,100137.88
2022-12-14T12:52:57.764Z,100262.78
2022-12-14T12:55:29.759Z,100227.50
2022-12-14T12:57:59.549Z,100247.78
2022-12-14T13:00:28.004Z,100242.81
2022-12-14T13:03:00.607Z,100173.41
2022-12-14T13:05:46.297Z,100253.06
2022-12-14T13:08:27.583Z,100263.59
2022-12-14T13:11:24.977Z,100175.47
2022-12-14T13:13:52.099Z,100265.88
2022-12-14T13:16:29.725Z,100243.88
2022-12-14T13:19:18.951Z,100252.22
2022-12-14T13:21:52.082Z,100251.81
2022-12-14T13:24:21.796Z,100247.25
2022-12-14T13:27:17.446Z,100246.94
2022-12-14T13:30:11.360Z,100240.63
2022-12-14T13:32:52.074Z,100232.00
2022-12-14T13:35:50.915Z,100234.81
2022-12-14T13:38:45.849Z,100235.50
2022-12-14T13:41:28.158Z,100240.28
2022-12-14T13:44:30.941Z,100240.53
2022-12-14T13:47:03.635Z,99999.84
2022-12-14T13:49:32.296Z,100216.41
2022-12-14T13:52:00.130Z,100230.00
2022-12-14T13:54:32.679Z,100215.84
2022-12-14T13:57:10.666Z,100237.31
2022-12-14T13:59:41.798Z,100234.97
2022-12-14T14:02:28.475Z,100239.72
2022-12-14T14:05:18.790Z,100250.97
2022-12-14T14:07:53.702Z,100246.16
2022-12-14T14:10:40.509Z,100246.03
2022-12-14T14:13:27.190Z,100247.09
2022-12-14T14:18:53.034Z,100238.28
2022-12-14T14:21:22.472Z,100246.69
2022-12-14T14:24:06.531Z,100242.44
2022-12-14T14:26:36.699Z,100237.38
2022-12-14T14:29:28.565Z,100226.22
2022-12-14T14:32:26.645Z,100248.75
2022-12-14T14:34:54.116Z,100217.09
2022-12-14T14:37:21.653Z,100233.69
2022-12-14T14:40:16.847Z,100217.09
2022-12-14T14:42:53.026Z,100245.81
2022-12-14T14:45:40.115Z,100234.94
2022-12-14T14:48:39.923Z,100234.25
2022-12-14T14:51:26.554Z,100232.41
2022-12-14T14:54:44.781Z,100238.94
2022-12-14T14:57:35.379Z,100231.56
2022-12-14T15:00:04.072Z,100233.09
2022-12-14T15:02:43.015Z,100209.84
2022-12-14T15:05:42.212Z,100213.47
2022-12-14T15:08:28.629Z,100171.06
2022-12-14T15:10:56.158Z,100223.50
2022-12-14T15:13:30.093Z,100241.22
2022-12-14T15:15:57.065Z,100174.34
2022-12-14T15:18:26.512Z,100246.00
2022-12-14T15:20:57.936Z,100251.47
2022-12-14T15:23:25.810Z,100226.94
2022-12-14T15:26:00.727Z,100250.06
2022-12-14T15:28:29.393Z,100224.03
2022-12-14T15:30:59.066Z,100248.63
2022-12-14T15:33:35.699Z,100237.56
2022-12-14T15:36:26.398Z,100179.22
2022-12-14T15:38:56.603Z,100251.53
2022-12-14T15:41:25.523Z,100259.94
2022-12-14T15:43:59.371Z,100262.59
2022-12-14T15:46:30.029Z,100229.94
2022-12-14T15:49:05.690Z,100253.03
2022-12-14T15:51:44.261Z,100249.81
2022-12-14T15:54:24.280Z,100192.63
2022-12-14T15:56:54.127Z,100255.53
2022-12-14T15:59:42.227Z,100250.31
2022-12-14T16:02:31.004Z,100253.06
2022-12-14T16:05:01.260Z,100250.44
2022-12-14T16:07:38.546Z,100223.16
2022-12-14T16:10:28.767Z,100248.09
2022-12-14T16:13:02.330Z,100181.28
2022-12-14T16:15:29.733Z,100208.91
2022-12-14T16:18:02.327Z,100253.47
2022-12-14T16:20:36.027Z,100157.25
2022-12-14T16:23:06.467Z,100249.28
2022-12-14T16:25:37.745Z,100206.50
2022-12-14T16:28:27.941Z,100247.31
2022-12-14T16:31:19.383Z,100229.94
2022-12-14T16:33:50.183Z,100231.66
2022-12-14T16:36:25.601Z,100236.22
2022-12-14T16:39:01.567Z,100236.59
2022-12-14T16:41:41.551Z,100238.50
2022-12-14T16:44:20.380Z,100245.75
2022-12-14T16:47:23.422Z,100250.34
2022-12-14T16:49:50.723Z,100241.84
2022-12-14T16:52:26.298Z,100164.84
2022-12-14T16:55:12.088Z,100244.59
2022-12-14T16:57:52.742Z,100241.09
2022-12-14T17:00:27.354Z,100243.41
2022-12-14T17:02:58.278Z,100242.78
2022-12-14T17:05:30.130Z,100248.97
2022-12-14T17:07:57.291Z,100251.75
2022-12-14T17:10:25.759Z,100251.25
2022-12-14T17:12:56.340Z,100250.53
2022-12-14T17:15:25.442Z,100247.78
2022-12-14T17:17:54.817Z,100247.72
2022-12-14T17:20:23.072Z,100207.88
2022-12-14T17:22:50.110Z,100213.88
2022-12-14T17:25:17.325Z,100242.94
2022-12-14T17:27:45.774Z,100237.72
2022-12-14T17:30:17.893Z,100190.34
2022-12-14T17:32:44.653Z,100238.28
2022-12-14T17:35:20.450Z,100225.66
2022-12-14T17:37:47.543Z,100242.69
2022-12-14T17:40:16.608Z,100246.25
2022-12-14T17:42:47.421Z,100185.47
2022-12-14T17:45:28.563Z,100248.94
2022-12-14T17:47:55.533Z,100251.81
2022-12-14T17:50:22.351Z,100216.44
2022-12-14T17:52:50.459Z,100245.75
2022-12-14T17:55:23.114Z,100247.22
2022-12-14T17:57:51.169Z,100173.41
2022-12-14T18:00:43.406Z,100250.97
2022-12-14T18:03:12.121Z,100259.94
2022-12-14T18:05:46.584Z,100254.88
2022-12-14T18:08:15.565Z,100264.03
2022-12-14T18:10:42.138Z,100218.09
2022-12-14T18:13:11.681Z,100199.63
2022-12-14T18:15:41.649Z,100250.47
2022-12-14T18:18:08.952Z,100259.53
2022-12-14T18:20:36.781Z,100233.72
2022-12-14T18:23:03.621Z,100245.09
2022-12-14T18:25:35.686Z,100270.56
2022-12-14T18:28:04.833Z,99695.13
2022-12-14T18:30:40.714Z,100256.91
2022-12-14T18:33:17.990Z,100247.25
2022-12-14T18:35:55.540Z,100248.56
2022-12-14T18:38:22.747Z,100247.72
2022-12-14T18:40:53.238Z,100245.06
2022-12-14T18:43:26.555Z,100236.16
2022-12-14T18:45:56.972Z,100219.44
2022-12-14T18:48:25.392Z,100199.16
2022-12-14T18:50:54.429Z,100231.81
2022-12-14T18:53:26.322Z,100218.38
2022-12-14T18:56:43.368Z,100239.00
2022-12-14T18:59:09.842Z,100224.47
2022-12-14T19:01:36.400Z,100237.41
2022-12-14T19:04:09.207Z,100249.69
2022-12-14T19:06:44.925Z,100257.25
2022-12-14T19:09:13.088Z,100238.78
2022-12-14T19:17:58.640Z,100160.94
2022-12-14T19:20:29.321Z,100183.00
2022-12-14T19:22:55.924Z,100285.03
2022-12-14T19:25:23.476Z,100282.94
2022-12-14T19:30:40.163Z,100258.56
2022-12-14T19:33:06.643Z,100286.94
2022-12-14T19:35:33.168Z,100260.13
2022-12-14T19:37:59.778Z,100249.00
2022-12-14T19:40:26.653Z,100221.00
2022-12-14T19:42:53.349Z,100234.53
2022-12-14T19:45:22.924Z,100280.72
2022-12-14T19:47:49.613Z,100208.72
2022-12-14T19:50:16.631Z,100295.00
2022-12-14T19:52:43.630Z,100206.38
2022-12-14T19:55:13.992Z,100309.94
2022-12-14T19:57:40.847Z,100221.81
2022-12-14T20:00:11.969Z,100210.13
2022-12-14T20:02:38.765Z,100217.91
2022-12-14T20:05:06.318Z,100296.97
2022-12-14T20:07:33.084Z,100285.31
2022-12-14T20:09:59.601Z,100118.22
2022-12-14T20:12:26.137Z,100186.16
2022-12-14T20:14:52.791Z,100240.81
2022-12-14T20:17:19.358Z,100197.50
2022-12-14T20:19:45.997Z,100268.13
2022-12-14T20:22:14.895Z,100222.66
2022-12-14T20:24:42.653Z,100189.94
2022-12-14T20:27:09.222Z,100206.41
2022-12-14T20:29:36.920Z,100268.47
2022-12-14T20:32:03.530Z,100203.84
2022-12-14T20:34:30.853Z,100265.00
2022-12-14T20:36:57.430Z,100266.09
2022-12-14T20:39:23.938Z,100237.91
2022-12-14T20:41:50.582Z,100263.72
2022-12-14T20:44:18.213Z,100258.47
2022-12-14T20:46:46.409Z,100260.28
2022-12-14T20:49:18.721Z,100262.41
2022-12-14T20:51:46.354Z,100268.09
2022-12-14T20:54:18.926Z,100184.97
2022-12-14T20:56:45.596Z,100259.75
2022-12-14T20:59:16.153Z,100245.16
2022-12-14T21:01:43.349Z,100257.75
2022-12-14T21:04:12.078Z,100238.22
2022-12-14T21:06:42.117Z,100197.25
2022-12-14T21:09:10.293Z,100271.31
2022-12-14T21:12:01.747Z,100196.41
2022-12-14T21:14:32.440Z,100270.66
2022-12-14T21:16:59.846Z,100276.03
2022-12-14T21:19:28.486Z,100269.91
2022-12-14T21:21:55.177Z,100157.97
2022-12-14T21:25:00.551Z,100244.19
2022-12-14T21:27:15.761Z,100258.75
2022-12-14T21:29:42.216Z,100246.91
2022-12-14T21:32:08.959Z,100218.69
2022-12-14T21:34:35.503Z,100211.75
2022-12-14T21:37:02.039Z,100278.03
2022-12-14T21:39:28.626Z,100261.00
2022-12-14T21:42:10.448Z,100287.72
2022-12-14T21:44:39.798Z,100253.00
2022-12-14T21:47:09.535Z,100290.03
2022-12-14T21:49:39.517Z,100244.28
2022-12-14T21:52:07.940Z,100283.78
2022-12-14T21:54:36.108Z,100287.16
2022-12-14T21:57:21.593Z,100279.50
2022-12-14T21:59:48.184Z,100283.69
2022-12-14T22:02:19.337Z,100259.75
2022-12-14T22:04:46.835Z,100295.41
2022-12-14T22:07:18.818Z,100279.53
2022-12-14T22:09:49.473Z,100260.78
2022-12-14T22:12:17.905Z,100293.38
2022-12-14T22:14:44.358Z,100257.50
2022-12-14T22:17:12.617Z,100293.59
2022-12-14T22:19:39.111Z,100235.78
2022-12-14T22:22:05.695Z,100286.59
2022-12-14T22:24:33.197Z,100231.00
2022-12-14T22:26:59.732Z,100308.69
2022-12-14T22:29:26.341Z,100306.41
2022-12-14T22:31:53.210Z,100306.06
2022-12-14T22:34:22.834Z,100259.88
2022-12-14T22:36:51.084Z,100321.22
2022-12-14T22:39:18.611Z,100317.75
2022-12-14T22:41:46.226Z,100262.59
2022-12-14T22:44:13.125Z,100321.19
2022-12-14T22:46:40.802Z,100300.66
2022-12-14T22:49:07.307Z,100265.34
2022-12-14T22:51:33.865Z,100303.38
2022-12-14T22:54:00.397Z,100236.13
2022-12-14T22:56:37.333Z,100279.66
2022-12-14T22:59:09.545Z,100261.59
2022-12-14T23:01:37.603Z,100302.25
2022-12-14T23:04:07.047Z,100273.03
2022-12-14T23:06:33.991Z,100326.56
2022-12-14T23:09:19.027Z,100255.94
2022-12-14T23:12:06.549Z,100261.88
2022-12-14T23:14:53.983Z,100319.34
2022-12-14T23:17:38.884Z,100302.97
2022-12-14T23:20:24.905Z,100315.41
2022-12-14T23:23:09.709Z,100252.53
2022-12-14T23:25:54.877Z,100238.75
2022-12-14T23:28:39.868Z,100317.19
2022-12-14T23:31:24.989Z,100312.94
2022-12-14T23:34:10.284Z,100302.53
2022-12-14T23:36:55.159Z,100294.88
2022-12-14T23:39:40.070Z,100304.84
2022-12-14T23:42:24.999Z,100235.81
2022-12-14T23:45:10.048Z,100294.22
2022-12-14T23:47:54.873Z,100224.72
2022-12-14T23:50:39.882Z,100307.44
2022-12-14T23:53:26.446Z,100298.53
2022-12-14T23:56:11.586Z,100298.50
2022-12-14T23:58:56.546Z,100294.88
